Portada
METAR-TAF:

METAR-TAF

Aeroports :

Buixehr, Iran

latitud: 28-59N, longitud: 050-50E, altitud: 19 m

Observació

L'informe es va fer fa 40 minuts, a les 02:00 UTC
Vent calma
Temperatura 23°C
Humitat 83%
Pressió 1006 hPa
Visibilitat: 4000 m
boirina

METAR: OIBB 250200Z 00000KT 4000 BR NSC 23/20 Q1006 A2971

Hora: 06:10 (02:40 UTC)

Pronòstic

L'informe es va fer fa 35 minuts, a les 02:05 UTC
Pronòstic vàlid del 25 a les 03 UTC al 25 a les 12 UTC
Vent 8 kt del Nord/Nord-Oest
Visibilitat: 4000 m
boirina
Evolucionant progressivament
l' 25 a les 06 UTC al 25 a les 07 UTC
Visibilitat: 7000 m

TAF: OIBB 250205Z 2503/2512 33008KT 4000 BR NSC BECMG 2506/2507 7000

Observacions i pronòstics meteorològics de més de 4000 aeroports (METAR i TAF).

Les estacions disponibles són els punts grocs i vermells al mapa.

Posi el ratolí al punt desitjat per veure el nom de l'estació.

Feu clic per veure les observacions i els pronòstics meteorològics.

Per canviar el mapa: feu clic els botons verds amb una creu de color negre per apropar; al botó verd amb un guió per allunyar la imatge; o en les fletxes verdes per a mapes adjacents.


METAR-TAF: